LFBH/LRH METAR and TAF weather

Enter ICAO airport designator
Station Type Date Time Source
LFBH METAR 2022/06/28 23:30 UTC NOAA

LFBH 282330Z AUTO 24002KT CAVOK 15/11 Q1018 NOSIG


Station Type Date Time Source
LFBH Decoded METAR 2022/06/28 23:30 UTC NOAA

La Rochelle, France (LFBH) 46-09N 001-09W 10M
Jun 28, 2022 - 07:30 PM EDT / 2022.06.28 2330 UTC
Wind: from the WSW (240 degrees) at 2 MPH (2 KT):0
Visibility: greater than 7 mile(s):0
Temperature: 59 F (15 C)
Dew Point: 51 F (11 C)
Relative Humidity: 76%
Pressure (altimeter): 30.06 in. Hg (1018 hPa)
ob: LFBH 282330Z AUTO 24002KT CAVOK 15/11 Q1018 NOSIG
cycle: 23

Station Type Date Time Source
LFBH TAF 2022/06/28 18:48 UTC NOAA

TAF
AMD TAF
AMD LFBH 281845Z 2818/2918 25010KT CAVOK
BECMG 2904/2906 BKN030 PROB30
TEMPO 2906/2910 31010KT -RA BKN015
BECMG 2911/2913 CAVOK
TEMPO 2915/2918 4500 -SHRA SCT050TCU

Example: see airport list